Latest Coastal Weather Observations for Moorabbin Airport

IDV60701

Issued at 4:01 pm EST Sunday 5 July 2015 (issued every 10 minutes, with the page automatically refreshed every 10 minutes)

About coastal observations | Map of coastal stations | Coastal observations for VIC | Marine services | Other Formats
Station Details ID: 086077 Name: MOORABBIN AIRPORT Lat: -37.98 Lon: 145.10 Height: 12.1 m
Data from the previous 72 hours. | See also: Recent months at Moorabbin Airport
Date/Time
EST
Temp

°C
Wind Pressure Rain
since 9am
mm
Weather Cloud Vis
km
Sea
Height
m
Swell
Dir
 
Speed
knots
Gust
knots
hPa Trend Height
m
Period
s
Dir
05/04:00pm 12.8 N 18 26 1017.1 - 0.0 - - 10 - - - -
05/03:30pm 13.0 N 19 24 1017.2 - 0.0 - - 10 - - - -
05/03:00pm 13.1 N 17 22 1017.4 - 0.0 - Mostly clear 10 - - - -
05/02:30pm 12.9 N 16 21 1017.7 - 0.0 - Partly cloudy 10 - - - -
05/02:00pm 13.6 N 17 22 1017.6 - 0.0 - Partly cloudy 10 - - - -
05/01:30pm 13.5 N 16 22 1017.8 - 0.0 - Partly cloudy 10 - - - -
05/01:00pm 13.4 N 17 24 1018.1 - 0.0 - Partly cloudy 10 - - - -
05/12:30pm 13.1 N 17 22 1018.5 - 0.0 - Cloudy 10 - - - -
05/12:00pm 12.8 N 15 20 1018.9 - 0.0 - Cloudy 10 - - - -
05/11:30am 12.3 N 17 21 1019.3 - 0.0 - Cloudy 10 - - - -
05/11:00am 11.8 N 16 21 1019.7 - 0.0 - Partly cloudy 10 - - - -
05/10:30am 11.3 N 15 20 1020.1 - 0.0 - Partly cloudy 10 - - - -
05/10:00am 10.2 N 14 19 1020.3 - 0.0 - Partly cloudy 10 - - - -
05/09:30am 10.0 N 15 19 1020.5 - 0.0 - Cloudy 10 - - - -
05/09:00am 9.9 N 12 18 1020.5 - 2.6 - Cloudy 10 - - - -
05/08:30am 9.4 N 11 15 1020.3 - 2.6 - Cloudy 10 - - - -
05/08:00am 9.3 N 13 16 1020.3 - 2.6 - Cloudy 10 - - - -
05/07:30am 9.2 N 11 13 1020.3 - 2.6 - Cloudy 10 - - - -
05/07:00am 9.2 N 9 12 1020.4 - 2.6 - Cloudy 10 - - - -
05/06:30am 8.8 NNE 8 9 1020.2 - 2.6 - Cloudy 10 - - - -
05/06:00am 9.0 N 10 12 1020.0 - 2.6 - Cloudy 10 - - - -
05/05:30am 8.9 N 11 14 1019.7 - 2.6 - Partly cloudy 10 - - - -
05/05:00am 8.9 N 12 15 1019.5 - 2.6 - Cloudy 10 - - - -
05/04:30am 9.2 N 12 17 1019.6 - 2.6 - Cloudy 10 - - - -
05/04:00am 9.1 N 12 14 1019.8 - 2.6 - Partly cloudy 10 - - - -
05/03:30am 9.1 N 12 16 1020.1 - 2.6 - Partly cloudy 10 - - - -
05/03:00am 9.2 N 14 18 1020.4 - 2.6 - Cloudy 10 - - - -
05/02:30am 8.9 N 16 21 1020.3 - 2.6 - Partly cloudy 10 - - - -
05/02:00am 9.1 N 14 17 1020.4 - 2.6 - Partly cloudy 10 - - - -
05/01:30am 9.5 NNE 11 15 1020.7 - 2.6 - Partly cloudy 10 - - - -
05/01:00am 9.6 N 11 16 1020.8 - 2.6 - Cloudy 10 - - - -
05/12:30am 9.6 N 11 15 1020.9 - 2.6 - Partly cloudy 10 - - - -
05/12:00am 9.5 N 12 15 1020.9 - 2.6 - Cloudy 10 - - - -
 
Date/Time
EST
Temp

°C
Wind Pressure Rain
since 9am
mm
Weather Cloud Vis
km
Sea
Height
m
Swell
Dir
 
Speed
knots
Gust
knots
hPa Trend Height
m
Period
s
Dir
04/11:30pm 9.7 N 13 18 1021.2 - 2.6 - Partly cloudy 10 - - - -
04/11:00pm 9.5 N 11 14 1021.2 - 2.6 - Cloudy 10 - - - -
04/10:30pm 9.3 N 10 13 1021.4 - 2.6 - Partly cloudy 10 - - - -
04/10:00pm 9.3 N 11 15 1021.5 - 2.6 - Partly cloudy 10 - - - -
04/09:30pm 9.2 N 12 15 1021.5 - 2.6 - Partly cloudy 10 - - - -
04/09:00pm 8.9 N 13 16 1021.7 - 2.6 - Cloudy 10 - - - -
04/08:30pm 9.3 N 13 17 1021.8 - 2.6 - Cloudy 10 - - - -
04/08:00pm 9.0 N 10 13 1021.8 - 2.6 - Cloudy 10 - - - -
04/07:30pm 8.8 N 11 15 1021.6 - 2.6 - Partly cloudy 10 - - - -
04/07:00pm 8.5 N 11 13 1021.7 - 2.6 - Partly cloudy 10 - - - -
04/06:30pm 8.6 N 12 16 1021.7 - 2.4 - Cloudy 10 - - - -
04/06:00pm 8.7 N 10 14 1021.5 - 2.2 - Cloudy 10 - - - -
04/05:30pm 8.6 N 11 14 1021.3 - 2.2 - Cloudy 10 - - - -
04/05:00pm 8.7 N 12 15 1021.4 - 2.2 - Partly cloudy 10 - - - -
04/04:30pm 8.8 N 14 20 1021.3 - 2.2 - Partly cloudy 10 - - - -
04/04:00pm 8.6 N 13 17 1021.4 - 2.2 - Partly cloudy 10 - - - -
04/03:30pm 8.6 N 13 18 1021.3 - 2.2 - Cloudy 10 - - - -
04/03:00pm 8.4 N 12 16 1021.2 - 2.2 Recent precip. Cloudy 9 - - - -
04/02:30pm 8.8 N 15 20 1021.0 - 2.0 - Cloudy 10 - - - -
04/02:00pm 8.6 N 15 19 1021.1 - 2.0 - Cloudy 10 - - - -
04/01:30pm 8.7 N 15 19 1021.4 - 2.0 - Cloudy 10 - - - -
04/01:00pm 8.5 N 16 21 1021.3 - 2.0 - Cloudy 10 - - - -
04/12:30pm 8.2 N 13 18 1021.9 - 2.0 - Cloudy 10 - - - -
04/12:00pm 7.8 N 11 16 1022.3 - 2.0 Recent precip. Cloudy 10 - - - -
04/11:30am 7.9 N 13 18 1022.5 - 1.4 - Cloudy 10 - - - -
04/11:00am 8.0 N 12 16 1022.6 - 1.0 - Cloudy 10 - - - -
04/10:30am 8.0 N 13 17 1022.7 - 0.6 - Cloudy 10 - - - -
04/10:00am 8.2 N 12 17 1022.8 - 0.2 - Cloudy 10 - - - -
04/09:30am 8.3 N 12 16 1022.5 - 0.2 - Cloudy 10 - - - -
04/09:00am 8.4 N 12 15 1022.3 - 0.2 Recent precip. Cloudy 10 - - - -
04/08:30am 8.5 N 15 18 1022.3 - 0.0 - Cloudy 10 - - - -
04/08:00am 8.7 N 13 17 1022.3 - 0.0 - Partly cloudy 10 - - - -
04/07:30am 8.7 N 10 13 1022.1 - 0.0 - Partly cloudy 10 - - - -
04/07:00am 8.7 N 14 17 1021.8 - 0.0 - Partly cloudy 10 - - - -
04/06:30am 8.7 N 12 15 1022.1 - 0.0 - Cloudy 10 - - - -
04/06:00am 8.7 N 11 14 1022.0 - 0.0 - Cloudy 10 - - - -
04/05:30am 8.6 N 10 13 1022.0 - 0.0 - Cloudy 10 - - - -
04/05:00am 8.6 N 12 16 1021.8 - 0.0 - Partly cloudy 10 - - - -
04/04:30am 8.6 N 11 16 1022.0 - 0.0 - Cloudy 10 - - - -
04/04:00am 8.6 N 11 14 1022.0 - 0.0 - Partly cloudy 10 - - - -
04/03:30am 8.5 N 11 14 1022.2 - 0.0 - Partly cloudy 10 - - - -
04/03:00am 8.5 N 10 13 1022.7 - 0.0 - Cloudy 10 - - - -
04/02:30am 8.3 N 9 12 1023.0 - 0.0 - Partly cloudy 10 - - - -
04/02:00am 8.2 N 8 11 1023.3 - 0.0 - Partly cloudy 10 - - - -
04/01:30am 8.2 N 8 10 1023.4 - 0.0 - Partly cloudy 10 - - - -
04/01:00am 8.2 NNW 8 11 1023.7 - 0.0 - Cloudy 10 - - - -
04/12:30am 8.3 N 10 12 1023.9 - 0.0 - Cloudy 10 - - - -
04/12:00am 8.4 NNW 11 15 1024.0 - 0.0 - Cloudy 10 - - - -
 
Date/Time
EST
Temp

°C
Wind Pressure Rain
since 9am
mm
Weather Cloud Vis
km
Sea
Height
m
Swell
Dir
 
Speed
knots
Gust
knots
hPa Trend Height
m
Period
s
Dir
03/11:30pm 8.3 NNW 10 12 1024.0 - 0.0 - Cloudy 10 - - - -
03/11:00pm 8.0 N 9 12 1024.2 - 0.0 - Cloudy 10 - - - -
03/10:30pm 8.0 N 6 8 1024.6 - 0.0 - Partly cloudy 10 - - - -
03/10:00pm 7.1 N 6 8 1024.9 - 0.0 - Partly cloudy 10 - - - -
03/09:30pm 7.8 N 5 6 1025.2 - 0.0 - Partly cloudy 10 - - - -
03/09:00pm 8.9 NNW 5 6 1025.4 - 0.0 - Cloudy 10 - - - -
03/08:30pm 9.2 WNW 5 7 1025.6 - 0.0 - Cloudy 10 - - - -
03/08:00pm 9.3 NW 5 8 1025.6 - 0.0 - Cloudy 10 - - - -
03/07:30pm 9.4 WNW 6 8 1025.7 - 0.0 - Cloudy 10 - - - -
03/07:00pm 9.3 WNW 5 7 1025.6 - 0.0 - Cloudy 10 - - - -
03/06:30pm 9.1 WNW 6 9 1025.7 - 0.0 - Cloudy 10 - - - -
03/06:00pm 8.5 WNW 5 6 1025.7 - 0.0 - Mostly cloudy 10 - - - -
03/05:30pm 9.0 WNW 4 6 1025.6 - 0.0 - Cloudy 10 - - - -
03/05:00pm 9.7 W 7 10 1025.7 - 0.0 - Cloudy 10 - - - -
03/04:30pm 10.0 WNW 9 14 1026.1 - 0.0 - Cloudy 10 - - - -
03/04:00pm 10.2 W 8 13 1026.1 - 0.0 - Cloudy 10 - - - -
03/03:30pm 10.2 W 5 7 1026.0 - 0.0 - Cloudy 10 - - - -
03/03:00pm 10.3 W 6 9 1026.1 - 0.0 - Cloudy 10 - - - -
03/02:30pm 10.4 WNW 6 9 1026.1 - 0.0 - Cloudy 10 - - - -
03/02:00pm 10.3 WNW 7 10 1026.4 - 0.0 - Partly cloudy 10 - - - -
03/01:30pm 10.7 WNW 8 11 1026.7 - 0.0 - Partly cloudy 10 - - - -
03/01:00pm 10.2 WNW 7 11 1027.0 - 0.0 - Cloudy 10 - - - -
03/12:30pm 10.0 WNW 5 8 1027.4 - 0.0 - Cloudy 10 - - - -
03/12:00pm 9.7 NNW 4 6 1027.6 - 0.0 - Cloudy 10 - - - -
03/11:30am 9.1 WNW 4 6 1028.2 - 0.0 - Cloudy 10 - - - -
03/11:00am 8.6 N 5 7 1028.5 - 0.0 - Cloudy 10 - - - -
03/10:30am 8.2 N 2 5 1028.9 - 0.0 - Cloudy 10 - - - -
03/10:00am 7.6 N 6 7 1028.9 - 0.0 - Cloudy 10 - - - -
03/09:30am 7.3 NNW 5 9 1028.9 - 0.0 - Cloudy 10 - - - -
03/09:00am 6.7 NNW 6 8 1028.6 - 3.6 - Cloudy 10 - - - -
03/08:30am 6.2 N 7 8 1028.4 - 3.6 - Partly cloudy 10 - - - -
03/08:00am 5.3 N 5 6 1028.3 - 3.6 - - 10 - - - -
03/07:30am 5.7 N 5 6 1028.2 - 3.6 - - 10 - - - -
03/07:00am 6.7 NNW 6 7 1028.0 - 3.6 - Partly cloudy 10 - - - -
03/06:30am 7.0 N 5 6 1027.9 - 3.6 - Partly cloudy 10 - - - -
03/06:17am 7.1 NW 5 6 1027.8 - 3.6 - Partly cloudy 7 - - - -
03/06:00am 7.3 NW 5 7 1027.8 - 3.6 Rain Cloudy 5 - - - -
03/05:57am 7.3 NW 5 7 1027.8 - 3.6 - Partly cloudy 5 - - - -
03/05:30am 7.3 NW 7 8 1027.7 - 3.4 - Partly cloudy 10 - - - -
03/05:00am 7.1 NW 3 5 1027.7 - 3.4 - Partly cloudy 10 - - - -
03/04:30am 7.1 NNW 5 6 1027.6 - 3.4 - Partly cloudy 10 - - - -
03/04:00am 7.2 WNW 4 6 1027.7 - 3.4 - Partly cloudy 10 - - - -
03/03:30am 6.1 CALM 0 0 1028.1 - 3.4 - Partly cloudy 10 - - - -
03/03:00am 6.8 NNW 5 6 1027.9 - 3.2 - Partly cloudy 10 - - - -
03/02:30am 7.4 NW 5 7 1027.9 - 3.2 - Partly cloudy 10 - - - -
03/02:00am 7.6 W 7 9 1028.4 - 3.2 - Partly cloudy 10 - - - -
03/01:30am 7.8 WNW 7 10 1028.0 - 3.2 - Partly cloudy 10 - - - -
03/01:00am 8.5 SW 6 10 1028.0 - 3.2 - Partly cloudy 10 - - - -
03/12:30am 8.5 W 5 8 1028.2 - 3.0 - Partly cloudy 10 - - - -
03/12:00am 8.4 W 4 6 1028.3 - 3.0 Recent precip. Cloudy 10 - - - -
 
Date/Time
EST
Temp

°C
Wind Pressure Rain
since 9am
mm
Weather Cloud Vis
km
Sea
Height
m
Swell
Dir
 
Speed
knots
Gust
knots
hPa Trend Height
m
Period
s
Dir
02/11:30pm 8.3 SSW 7 11 1028.6 - 3.0 - Partly cloudy 8 - - - -
02/11:00pm 8.3 WSW 5 7 1028.4 - 2.8 - Partly cloudy 10 - - - -
02/10:30pm 8.3 W 6 8 1028.6 - 2.6 - Partly cloudy 10 - - - -
02/10:00pm 8.8 W 7 10 1028.3 - 2.6 - Partly cloudy 10 - - - -
02/09:30pm 9.0 WSW 7 11 1028.1 - 2.6 - Partly cloudy 10 - - - -
02/09:00pm 8.5 WSW 9 15 1028.0 - 2.6 Rain Cloudy 7 - - - -
02/08:30pm 9.4 WSW 10 14 1027.7 - 2.2 - Partly cloudy 10 - - - -
02/08:00pm 9.2 W 8 12 1027.6 - 2.2 - Partly cloudy 10 - - - -
02/07:30pm 9.5 SW 8 11 1027.2 - 2.2 - - 10 - - - -
02/07:00pm 9.3 SSW 9 13 1026.8 - 2.2 - Partly cloudy 10 - - - -
02/06:30pm 9.6 SSW 14 22 1026.7 - 2.2 - Partly cloudy 10 - - - -
02/06:00pm 9.6 SSW 9 14 1026.5 - 2.2 - Mostly cloudy 10 - - - -
02/05:30pm 10.0 SSW 13 19 1026.2 - 2.2 - Partly cloudy 10 - - - -
02/05:00pm 10.3 SSW 7 11 1025.8 - 2.2 - Partly cloudy 10 - - - -
02/04:30pm 10.4 SSW 11 15 1025.6 - 2.2 - Partly cloudy 10 - - - -

Other Formats:

Comma delimited format used in spreadsheet applications
http://www.bom.gov.au/fwo/IDV60701/IDV60701.94870.axf

JavaScript Object Notation format (JSON) in row-major order
http://www.bom.gov.au/fwo/IDV60701/IDV60701.94870.json